Time;durP1;ratioP1;P1;durP2;ratioP2;P2;SDS_P1;SDS_P2;PMS_P1;PMS_P2;Temp;Humidity;BMP_temperature;BMP_pressure;BME280_temperature;BME280_humidity;BME280_pressure;Samples;Min_cycle;Max_cycle;Signal;HPM_P1;HPM_P2
2022/01/15 00:02:23;;;;;;;9.97;3.80;;;-1.00;99.90;;;;;;5097958;28;20215;-57
2022/01/15 00:05:08;;;;;;;12.73;6.63;;;-1.00;99.90;;;;;;5103014;28;20196;-53
2022/01/15 00:07:52;;;;;;;9.47;5.67;;;-1.10;99.90;;;;;;5097512;28;20196;-52
2022/01/15 00:10:37;;;;;;;5.97;4.70;;;-1.10;99.90;;;;;;5101753;28;20250;-52
2022/01/15 00:13:27;;;;;;;4.00;3.07;;;-1.00;99.90;;;;;;5102221;28;20200;-60
2022/01/15 00:16:27;;;;;;;9.83;4.83;;;-1.00;99.90;;;;;;5099200;28;20234;-57
2022/01/15 00:19:14;;;;;;;9.03;4.97;;;-0.90;99.90;;;;;;5103063;28;20189;-53
2022/01/15 00:21:58;;;;;;;7.43;4.60;;;-1.10;99.90;;;;;;5101587;28;20224;-59
2022/01/15 00:24:44;;;;;;;4.50;4.10;;;-1.10;99.90;;;;;;5103091;28;20191;-58
2022/01/15 00:27:31;;;;;;;8.57;4.00;;;-1.10;99.90;;;;;;5102317;28;20223;-60
2022/01/15 00:30:17;;;;;;;12.47;5.87;;;-1.10;99.90;;;;;;5104274;28;20196;-58
2022/01/15 00:33:02;;;;;;;5.97;4.33;;;-1.20;99.90;;;;;;5104750;28;20200;-58
2022/01/15 00:35:47;;;;;;;12.23;5.03;;;-1.30;99.90;;;;;;5106869;28;20232;-54
2022/01/15 00:38:32;;;;;;;9.13;4.67;;;-1.30;99.90;;;;;;5105811;28;20195;-59
2022/01/15 00:41:18;;;;;;;10.57;5.33;;;-1.20;99.90;;;;;;5105315;28;20196;-56
2022/01/15 00:44:02;;;;;;;6.90;4.30;;;-1.20;99.90;;;;;;5106679;28;20192;-54
2022/01/15 00:46:47;;;;;;;5.43;4.13;;;-1.20;99.90;;;;;;5104961;28;20267;-59
2022/01/15 00:49:31;;;;;;;12.27;4.13;;;-1.10;99.90;;;;;;5106179;28;20188;-52
2022/01/15 00:52:16;;;;;;;6.67;4.50;;;-1.10;99.90;;;;;;5105924;28;20196;-56
2022/01/15 00:55:01;;;;;;;8.43;4.00;;;-1.10;99.90;;;;;;5104516;28;20254;-57
2022/01/15 00:57:46;;;;;;;8.67;4.70;;;-1.20;99.90;;;;;;5105899;28;20246;-61
2022/01/15 01:00:31;;;;;;;13.33;5.37;;;-1.10;99.90;;;;;;5105357;28;20192;-59
2022/01/15 01:03:15;;;;;;;11.10;5.20;;;-1.10;99.90;;;;;;5104528;28;20224;-58
2022/01/15 01:05:59;;;;;;;8.77;4.90;;;-1.00;99.90;;;;;;5106030;28;20200;-59
2022/01/15 01:08:43;;;;;;;9.97;4.93;;;-0.90;99.90;;;;;;5104434;28;20223;-57
2022/01/15 01:12:24;;;;;;;4.97;4.50;;;-0.80;99.90;;;;;;5105665;28;20266;-55
2022/01/15 01:23:34;;;;;;;19.93;5.80;;;-0.70;99.90;;;;;;5106648;28;20274;-58
2022/01/15 01:26:30;;;;;;;8.90;5.47;;;-0.60;99.90;;;;;;5105989;28;20210;-56
2022/01/15 01:35:15;;;;;;;6.00;3.50;;;-0.70;99.90;;;;;;5105596;28;20254;-54
2022/01/15 01:38:08;;;;;;;5.27;4.03;;;-0.60;99.90;;;;;;5104323;28;20230;-58
2022/01/15 01:40:52;;;;;;;9.83;4.97;;;-0.50;99.90;;;;;;5104935;28;20299;-60
2022/01/15 01:49:13;;;;;;;14.33;5.23;;;-0.30;99.90;;;;;;5106707;28;20193;-60
2022/01/15 01:51:57;;;;;;;15.00;6.67;;;-0.40;99.90;;;;;;5104213;28;20249;-60
2022/01/15 01:54:42;;;;;;;10.23;4.77;;;-0.50;99.90;;;;;;5104765;28;20241;-58
2022/01/15 01:57:26;;;;;;;10.80;4.90;;;-0.60;99.90;;;;;;5105657;28;20222;-57
2022/01/15 02:00:14;;;;;;;7.20;4.03;;;-0.50;99.90;;;;;;5103341;28;20241;-56
2022/01/15 02:02:59;;;;;;;7.03;5.33;;;-0.40;99.90;;;;;;5104681;28;20224;-58
2022/01/15 02:05:43;;;;;;;5.33;3.97;;;-0.30;99.90;;;;;;5104496;28;20670;-60
2022/01/15 02:08:29;;;;;;;7.57;4.93;;;-0.20;99.90;;;;;;5103975;28;20199;-60
2022/01/15 02:11:14;;;;;;;9.20;4.60;;;-0.30;99.90;;;;;;5104701;28;20196;-61
2022/01/15 02:13:59;;;;;;;14.67;5.57;;;-0.30;99.90;;;;;;5104150;28;20277;-61
2022/01/15 02:16:43;;;;;;;9.70;4.97;;;-0.30;99.90;;;;;;5103896;28;20285;-59
2022/01/15 02:19:44;;;;;;;11.23;5.00;;;-0.30;99.90;;;;;;5104970;28;20196;-59
2022/01/15 02:25:43;;;;;;;10.37;5.60;;;-0.20;99.90;;;;;;5104893;28;20192;-54
2022/01/15 02:28:34;;;;;;;6.53;4.63;;;-0.20;99.90;;;;;;5104122;28;20200;-55
2022/01/15 02:31:19;;;;;;;11.63;6.77;;;-0.10;99.90;;;;;;5103553;28;20200;-59
2022/01/15 02:34:05;;;;;;;10.30;4.27;;;-0.20;99.90;;;;;;5103122;28;20267;-59
2022/01/15 02:36:50;;;;;;;5.70;3.97;;;-0.10;99.90;;;;;;5104371;28;20210;-60
2022/01/15 02:39:37;;;;;;;9.03;4.37;;;-0.10;99.90;;;;;;5102925;28;20204;-60
2022/01/15 02:42:23;;;;;;;5.57;4.57;;;-0.10;99.90;;;;;;5103218;28;20224;-61
2022/01/15 02:45:08;;;;;;;15.50;7.00;;;0.00;99.90;;;;;;5104338;28;20239;-58
2022/01/15 02:48:01;;;;;;;6.40;4.33;;;-0.10;99.90;;;;;;5102463;28;20188;-56
2022/01/15 02:50:47;;;;;;;13.40;5.87;;;-0.10;99.90;;;;;;5103945;28;20293;-58
2022/01/15 02:53:31;;;;;;;10.43;5.47;;;-0.20;99.90;;;;;;5104083;28;20211;-61
2022/01/15 02:56:15;;;;;;;7.70;4.50;;;-0.10;99.90;;;;;;5102954;28;20219;-59
2022/01/15 02:59:02;;;;;;;15.23;5.73;;;-0.10;99.90;;;;;;5103317;28;20196;-58
2022/01/15 03:01:49;;;;;;;7.33;4.90;;;-0.10;99.90;;;;;;5102902;28;20232;-57
2022/01/15 03:04:33;;;;;;;10.87;4.43;;;-0.10;99.90;;;;;;5101874;28;20277;-59
2022/01/15 03:07:17;;;;;;;6.60;5.93;;;0.00;99.90;;;;;;5103847;28;20231;-58
2022/01/15 03:10:02;;;;;;;12.40;5.50;;;0.00;99.90;;;;;;5102231;28;20202;-59
2022/01/15 03:12:47;;;;;;;11.70;6.17;;;0.10;99.90;;;;;;5102708;28;20281;-58
2022/01/15 03:15:32;;;;;;;11.50;4.80;;;0.20;99.90;;;;;;5103818;28;20243;-59
2022/01/15 03:18:16;;;;;;;13.40;6.67;;;0.20;99.90;;;;;;5102111;28;20306;-59
2022/01/15 03:21:00;;;;;;;9.37;5.50;;;0.20;99.90;;;;;;5103517;28;20242;-59
2022/01/15 03:23:45;;;;;;;7.63;4.80;;;0.00;99.90;;;;;;5102619;28;20203;-57
2022/01/15 03:26:30;;;;;;;6.77;4.73;;;0.00;99.90;;;;;;5101842;28;20196;-59
2022/01/15 03:29:14;;;;;;;18.17;5.33;;;0.10;99.90;;;;;;5103345;28;20254;-59
2022/01/15 03:31:58;;;;;;;12.03;4.53;;;0.10;99.90;;;;;;5102152;28;20206;-58
2022/01/15 03:34:43;;;;;;;13.50;5.60;;;0.10;99.90;;;;;;5102212;28;20220;-62
2022/01/15 03:37:27;;;;;;;16.27;6.57;;;0.10;99.90;;;;;;5103612;28;20192;-60
2022/01/15 03:40:15;;;;;;;5.23;4.53;;;0.10;99.90;;;;;;5103766;28;20207;-62
2022/01/15 03:43:00;;;;;;;4.33;2.97;;;0.00;99.90;;;;;;5103337;28;20262;-59
2022/01/15 03:45:44;;;;;;;14.83;6.77;;;0.10;99.90;;;;;;5103496;28;20257;-57
2022/01/15 03:48:29;;;;;;;14.63;7.27;;;0.10;99.90;;;;;;5102026;28;20231;-59
2022/01/15 03:51:19;;;;;;;6.30;4.13;;;0.10;99.90;;;;;;5102845;28;20191;-61
2022/01/15 03:54:03;;;;;;;7.47;6.23;;;0.20;99.90;;;;;;5102319;28;20200;-61
2022/01/15 03:56:47;;;;;;;11.40;5.07;;;0.20;99.90;;;;;;5101541;28;20196;-61
2022/01/15 03:59:33;;;;;;;12.03;6.03;;;0.20;99.90;;;;;;5104910;28;20195;-60
2022/01/15 04:02:17;;;;;;;8.93;4.97;;;0.20;99.90;;;;;;5105703;28;20242;-57
2022/01/15 04:05:02;;;;;;;8.57;6.57;;;0.10;99.90;;;;;;5105137;28;20199;-60
2022/01/15 04:07:47;;;;;;;11.17;5.27;;;0.20;99.90;;;;;;5107233;28;20203;-59
2022/01/15 04:10:31;;;;;;;10.37;5.97;;;0.20;99.90;;;;;;5105820;28;20226;-61
2022/01/15 04:13:15;;;;;;;10.33;4.73;;;0.20;99.90;;;;;;5106717;28;20208;-58
2022/01/15 04:16:00;;;;;;;9.77;4.03;;;0.20;99.90;;;;;;5107338;28;20269;-59
2022/01/15 04:18:45;;;;;;;14.33;6.20;;;0.20;99.90;;;;;;5105894;28;20263;-61
2022/01/15 04:21:29;;;;;;;8.90;5.57;;;0.20;99.90;;;;;;5106769;28;20192;-61
2022/01/15 04:24:13;;;;;;;8.30;5.00;;;0.10;99.90;;;;;;5106050;28;20609;-59
2022/01/15 04:26:58;;;;;;;10.03;4.97;;;0.20;99.90;;;;;;5105374;28;20262;-61
2022/01/15 04:29:43;;;;;;;12.60;6.53;;;0.20;99.90;;;;;;5106598;28;20285;-59
2022/01/15 04:32:27;;;;;;;12.97;5.53;;;0.10;99.90;;;;;;5105700;28;20210;-60
2022/01/15 04:35:13;;;;;;;10.10;4.53;;;0.20;99.90;;;;;;5105092;28;20254;-56
2022/01/15 04:38:05;;;;;;;7.67;4.93;;;0.00;99.90;;;;;;5106315;28;20232;-60
2022/01/15 04:40:49;;;;;;;15.63;6.73;;;0.10;99.90;;;;;;5105280;28;20220;-60
2022/01/15 04:43:34;;;;;;;14.83;5.13;;;0.20;99.90;;;;;;5106022;28;20607;-61
2022/01/15 04:46:18;;;;;;;16.20;7.07;;;0.30;99.90;;;;;;5106697;28;20196;-60
2022/01/15 04:49:05;;;;;;;12.87;6.77;;;0.20;99.90;;;;;;5105690;28;20211;-60
2022/01/15 04:51:49;;;;;;;10.27;4.87;;;0.20;99.90;;;;;;5106188;28;20200;-60
2022/01/15 04:54:34;;;;;;;9.63;5.30;;;0.30;99.90;;;;;;5105461;28;20200;-59
2022/01/15 04:57:19;;;;;;;13.27;5.17;;;0.20;99.90;;;;;;5105125;28;20196;-56
2022/01/15 05:00:05;;;;;;;14.97;7.73;;;0.20;99.90;;;;;;5105953;28;20249;-60
2022/01/15 05:02:49;;;;;;;9.07;4.70;;;0.40;99.90;;;;;;5104209;28;20300;-59
2022/01/15 05:05:33;;;;;;;6.67;5.00;;;0.40;99.90;;;;;;5103024;28;20197;-58
2022/01/15 05:08:18;;;;;;;7.93;5.03;;;0.40;99.90;;;;;;5104471;28;20242;-58
2022/01/15 05:11:13;;;;;;;8.33;4.43;;;0.30;99.90;;;;;;5102721;28;20277;-60
2022/01/15 05:13:57;;;;;;;17.93;6.03;;;0.40;99.90;;;;;;5102855;28;20192;-57
2022/01/15 05:16:41;;;;;;;9.73;3.90;;;0.40;99.90;;;;;;5103944;28;20192;-57
2022/01/15 05:19:26;;;;;;;9.63;5.70;;;0.50;99.90;;;;;;5102508;28;20204;-59
2022/01/15 05:22:10;;;;;;;8.37;5.73;;;0.40;99.90;;;;;;5100992;28;20256;-58
2022/01/15 05:24:54;;;;;;;5.93;4.87;;;0.50;99.90;;;;;;5104627;28;20199;-59
2022/01/15 05:27:38;;;;;;;11.80;5.03;;;0.50;99.90;;;;;;5101415;28;20302;-57
2022/01/15 05:30:22;;;;;;;12.87;5.53;;;0.50;99.90;;;;;;5103026;28;20325;-56
2022/01/15 05:33:06;;;;;;;21.00;6.07;;;0.60;99.90;;;;;;5103560;28;20212;-58
2022/01/15 05:35:51;;;;;;;11.03;4.87;;;0.60;99.90;;;;;;5102552;28;20239;-56
2022/01/15 05:38:35;;;;;;;8.23;4.33;;;0.60;99.90;;;;;;5104418;28;20196;-56
2022/01/15 05:41:20;;;;;;;7.63;3.67;;;0.60;99.90;;;;;;5086615;28;20301;-58
2022/01/15 05:44:05;;;;;;;11.17;5.67;;;0.60;99.90;;;;;;5102666;28;20192;-56
2022/01/15 05:46:49;;;;;;;13.93;5.67;;;0.60;99.90;;;;;;5100196;28;20184;-57
2022/01/15 05:49:34;;;;;;;10.23;4.93;;;0.60;99.90;;;;;;5101974;28;20184;-58
2022/01/15 05:52:18;;;;;;;16.17;4.53;;;0.70;99.90;;;;;;5101022;28;20187;-53
2022/01/15 05:55:03;;;;;;;14.23;5.67;;;0.60;99.90;;;;;;5101088;28;20261;-59
2022/01/15 05:57:47;;;;;;;13.37;4.70;;;0.60;99.90;;;;;;5101404;28;20200;-56
2022/01/15 06:00:31;;;;;;;18.63;5.43;;;0.70;99.90;;;;;;5103278;28;20196;-55
2022/01/15 06:03:16;;;;;;;13.53;5.50;;;0.70;99.90;;;;;;5100104;28;20224;-54
2022/01/15 06:06:02;;;;;;;10.83;5.13;;;0.70;99.90;;;;;;5101483;28;20197;-58
2022/01/15 06:08:47;;;;;;;15.13;5.73;;;0.60;99.90;;;;;;5102612;28;20253;-57
2022/01/15 06:11:34;;;;;;;20.43;6.73;;;0.60;99.90;;;;;;5103031;28;20301;-56
2022/01/15 06:14:18;;;;;;;32.83;16.67;;;0.70;99.90;;;;;;5101325;28;20200;-59
2022/01/15 06:17:04;;;;;;;48.87;25.30;;;0.60;99.90;;;;;;5101895;28;20203;-57
2022/01/15 06:19:48;;;;;;;12.13;5.73;;;0.80;99.90;;;;;;5094962;28;20200;-52
2022/01/15 06:22:33;;;;;;;12.07;5.90;;;0.70;99.90;;;;;;5102483;28;20212;-55
2022/01/15 06:25:18;;;;;;;9.77;5.27;;;0.70;99.90;;;;;;5099239;28;20271;-60
2022/01/15 06:28:02;;;;;;;12.43;5.73;;;0.80;99.90;;;;;;5099428;28;20242;-57
2022/01/15 06:30:47;;;;;;;11.97;6.03;;;0.80;99.90;;;;;;5101542;28;20196;-58
2022/01/15 06:33:32;;;;;;;12.87;5.93;;;0.80;99.90;;;;;;5101079;28;20188;-59
2022/01/15 06:36:22;;;;;;;13.53;6.00;;;0.80;99.90;;;;;;5147727;27;20562;-58
2022/01/15 06:39:06;;;;;;;10.20;5.53;;;0.90;99.90;;;;;;5147098;27;20210;-58
2022/01/15 06:41:51;;;;;;;11.87;6.07;;;0.90;99.90;;;;;;5176520;27;20214;-62
2022/01/15 06:44:35;;;;;;;12.30;6.30;;;0.90;99.90;;;;;;5148971;27;20187;-64
2022/01/15 06:47:19;;;;;;;16.63;6.27;;;0.80;99.90;;;;;;5172103;27;20206;-60
2022/01/15 06:50:05;;;;;;;9.17;4.47;;;0.90;99.90;;;;;;5129485;27;20606;-62
2022/01/15 06:52:50;;;;;;;10.73;4.33;;;0.80;99.90;;;;;;5148028;27;20267;-59
2022/01/15 06:55:35;;;;;;;11.13;6.33;;;0.80;99.90;;;;;;5147333;27;20218;-62
2022/01/15 06:58:28;;;;;;;11.63;5.00;;;0.90;99.90;;;;;;5178620;27;20221;-62
2022/01/15 07:01:12;;;;;;;7.40;4.17;;;0.90;99.90;;;;;;5137676;27;20195;-62
2022/01/15 07:03:56;;;;;;;10.20;5.07;;;0.90;99.90;;;;;;5147501;27;20190;-62
2022/01/15 07:06:40;;;;;;;11.50;6.27;;;1.00;99.90;;;;;;5148234;27;20222;-63
2022/01/15 07:09:24;;;;;;;7.77;5.27;;;0.90;99.90;;;;;;5176922;27;20210;-61
2022/01/15 07:12:09;;;;;;;8.70;5.63;;;0.90;99.90;;;;;;5147441;27;20252;-61
2022/01/15 07:14:54;;;;;;;14.53;5.97;;;0.90;99.90;;;;;;5148104;27;20227;-62
2022/01/15 07:17:46;;;;;;;8.47;5.50;;;1.00;99.90;;;;;;5147518;27;20423;-63
2022/01/15 07:20:30;;;;;;;8.17;4.63;;;0.90;99.90;;;;;;5146405;27;20226;-60
2022/01/15 07:23:14;;;;;;;19.10;6.67;;;0.90;99.90;;;;;;5147408;27;20307;-60
2022/01/15 07:25:59;;;;;;;9.07;5.17;;;1.00;99.90;;;;;;5146352;27;20199;-63
2022/01/15 07:28:43;;;;;;;9.63;4.97;;;0.90;99.90;;;;;;5148298;27;20209;-62
2022/01/15 07:31:28;;;;;;;13.47;5.47;;;0.90;99.90;;;;;;5147840;27;20195;-61
2022/01/15 07:34:14;;;;;;;8.20;4.07;;;0.90;99.90;;;;;;5146235;27;20232;-63
2022/01/15 07:36:59;;;;;;;9.23;6.10;;;1.00;99.90;;;;;;5147553;27;20191;-61
2022/01/15 07:39:44;;;;;;;8.87;5.97;;;1.00;99.90;;;;;;5147782;27;20195;-61
2022/01/15 07:42:34;;;;;;;9.07;4.90;;;1.00;99.90;;;;;;5146138;27;20182;-61
2022/01/15 07:45:19;;;;;;;11.90;5.13;;;1.10;99.90;;;;;;5147744;27;20296;-59
2022/01/15 07:48:03;;;;;;;11.83;7.60;;;1.10;99.90;;;;;;5132764;27;20280;-63
2022/01/15 07:50:48;;;;;;;18.17;6.47;;;1.20;99.90;;;;;;5132411;27;20211;-61
2022/01/15 07:53:32;;;;;;;19.63;8.63;;;1.10;99.90;;;;;;5133551;27;20240;-62
2022/01/15 07:56:17;;;;;;;13.57;6.23;;;1.10;99.90;;;;;;5132554;27;20235;-62
2022/01/15 07:59:02;;;;;;;13.77;6.80;;;1.20;99.90;;;;;;5132791;27;20191;-59
2022/01/15 08:01:46;;;;;;;8.20;5.63;;;1.20;99.90;;;;;;5133217;27;20238;-62
2022/01/15 08:04:31;;;;;;;8.80;5.73;;;1.30;99.90;;;;;;5131876;27;20236;-62
2022/01/15 08:07:18;;;;;;;11.43;5.87;;;1.30;99.90;;;;;;5133148;27;20195;-62
2022/01/15 08:10:06;;;;;;;9.53;5.63;;;1.30;99.90;;;;;;5133573;27;20199;-60
2022/01/15 08:12:51;;;;;;;13.77;7.30;;;1.30;99.90;;;;;;5131916;27;20176;-60
2022/01/15 08:15:36;;;;;;;15.37;6.60;;;1.20;99.90;;;;;;5132772;27;20245;-62
2022/01/15 08:18:21;;;;;;;14.33;6.00;;;1.20;99.90;;;;;;5147189;27;20277;-58
2022/01/15 08:21:06;;;;;;;10.30;4.90;;;1.30;99.90;;;;;;5131855;27;20257;-61
2022/01/15 08:23:50;;;;;;;8.20;6.00;;;1.30;99.90;;;;;;5132976;27;20249;-61
2022/01/15 08:26:35;;;;;;;12.50;6.67;;;1.30;99.90;;;;;;5132010;27;20196;-61
2022/01/15 08:29:19;;;;;;;13.50;6.50;;;1.20;99.90;;;;;;5132636;27;20187;-63
2022/01/15 08:32:04;;;;;;;16.77;7.87;;;1.20;99.90;;;;;;5133159;27;20194;-61
2022/01/15 08:34:48;;;;;;;10.73;6.37;;;1.30;99.90;;;;;;5131282;27;20365;-64
2022/01/15 08:37:34;;;;;;;13.97;5.27;;;1.30;99.90;;;;;;5128828;27;20203;-65
2022/01/15 08:40:21;;;;;;;15.87;6.70;;;1.40;99.90;;;;;;5145425;27;20192;-64
2022/01/15 08:43:06;;;;;;;14.10;5.93;;;1.40;99.90;;;;;;5127860;27;20195;-61
2022/01/15 08:45:50;;;;;;;16.37;6.77;;;1.30;99.90;;;;;;5128644;27;20227;-63
2022/01/15 08:48:35;;;;;;;13.93;6.53;;;1.40;99.90;;;;;;5129716;27;20191;-63
2022/01/15 08:51:19;;;;;;;13.40;6.03;;;1.40;99.90;;;;;;5127629;27;20183;-64
2022/01/15 08:54:03;;;;;;;10.60;5.77;;;1.50;99.90;;;;;;5129549;27;20215;-61
2022/01/15 08:56:48;;;;;;;12.97;5.53;;;1.50;99.90;;;;;;5128428;27;20192;-61
2022/01/15 08:59:32;;;;;;;18.63;6.87;;;1.60;99.90;;;;;;5126868;27;20188;-63
2022/01/15 09:02:16;;;;;;;13.60;6.57;;;1.50;99.90;;;;;;5130091;27;20245;-61
2022/01/15 09:05:00;;;;;;;11.37;5.50;;;1.60;99.90;;;;;;5127654;27;20303;-65
2022/01/15 09:07:45;;;;;;;9.63;5.17;;;1.60;99.90;;;;;;5128107;27;20191;-61
2022/01/15 09:10:30;;;;;;;14.83;6.70;;;1.80;99.90;;;;;;5129088;27;20195;-63
2022/01/15 09:13:14;;;;;;;8.20;5.03;;;1.70;99.90;;;;;;5126703;27;20202;-60
2022/01/15 09:16:02;;;;;;;12.70;5.77;;;1.60;99.90;;;;;;5128544;27;20250;-62
2022/01/15 09:18:46;;;;;;;15.50;6.30;;;1.70;99.90;;;;;;5129443;27;20257;-63
2022/01/15 09:21:31;;;;;;;39.80;7.70;;;1.90;99.90;;;;;;5127316;27;20233;-62
2022/01/15 09:24:16;;;;;;;17.80;7.47;;;2.10;99.90;;;;;;5129542;27;20200;-62
2022/01/15 09:30:12;;;;;;;14.80;6.13;;;2.20;99.90;;;;;;5128070;27;20266;-61
2022/01/15 09:30:13;;;;;;;12.33;6.00;;;2.30;99.90;;;;;;5127941;27;20323;-61
2022/01/15 09:32:58;;;;;;;14.03;6.67;;;2.30;99.90;;;;;;5129068;27;20248;-64
2022/01/15 09:35:42;;;;;;;10.10;6.30;;;2.40;99.90;;;;;;5127519;27;20245;-64
2022/01/15 09:38:27;;;;;;;15.10;6.70;;;2.40;99.90;;;;;;5127175;27;20241;-65
2022/01/15 09:41:13;;;;;;;13.47;4.97;;;2.10;99.90;;;;;;5129183;27;20221;-61
2022/01/15 09:43:59;;;;;;;14.90;8.30;;;2.10;99.90;;;;;;5126790;27;20304;-64
2022/01/15 09:46:45;;;;;;;13.07;7.00;;;2.10;99.90;;;;;;5126953;27;20205;-61
2022/01/15 09:49:31;;;;;;;11.70;6.60;;;2.10;99.90;;;;;;5129193;27;20195;-62
2022/01/15 09:52:18;;;;;;;9.97;4.53;;;2.20;99.90;;;;;;5126230;27;20236;-60
2022/01/15 09:55:06;;;;;;;10.23;5.13;;;2.20;99.90;;;;;;5127527;27;20226;-62
2022/01/15 09:57:51;;;;;;;12.70;6.47;;;2.20;99.90;;;;;;5128626;27;20191;-61
2022/01/15 10:00:36;;;;;;;8.53;5.17;;;2.10;99.90;;;;;;5126430;27;20199;-64
2022/01/15 10:03:20;;;;;;;14.57;6.83;;;2.10;99.90;;;;;;5128413;27;20253;-60
2022/01/15 10:06:05;;;;;;;12.37;6.13;;;2.20;99.90;;;;;;5126915;27;20191;-63
2022/01/15 10:09:10;;;;;;;11.87;7.33;;;2.30;99.90;;;;;;5126249;27;20192;-61
2022/01/15 10:11:54;;;;;;;9.43;5.33;;;2.40;99.90;;;;;;5128685;27;20290;-63
2022/01/15 10:14:41;;;;;;;11.83;5.83;;;2.40;99.90;;;;;;5127178;27;20219;-61
2022/01/15 10:17:33;;;;;;;12.97;6.97;;;2.60;99.90;;;;;;5126401;27;20239;-63
2022/01/15 10:20:21;;;;;;;7.67;4.77;;;2.40;99.90;;;;;;5129097;27;20257;-62
2022/01/15 10:23:18;;;;;;;12.47;5.97;;;2.30;99.90;;;;;;5127278;27;20204;-62
2022/01/15 10:26:18;;;;;;;8.47;5.10;;;2.40;99.90;;;;;;5126788;27;20214;-62
2022/01/15 10:29:07;;;;;;;12.17;4.97;;;2.50;99.90;;;;;;5129075;27;20191;-65
2022/01/15 10:31:53;;;;;;;10.30;5.73;;;2.60;99.90;;;;;;5126873;27;20241;-61
2022/01/15 10:34:37;;;;;;;14.73;5.83;;;2.20;99.90;;;;;;5125947;28;20234;-65
2022/01/15 10:37:34;;;;;;;9.63;5.53;;;2.40;99.90;;;;;;5128586;28;20196;-61
2022/01/15 10:40:22;;;;;;;11.20;5.63;;;2.60;99.90;;;;;;5126385;28;20251;-61
2022/01/15 10:43:07;;;;;;;16.57;7.70;;;2.50;99.90;;;;;;5126483;28;20279;-60
2022/01/15 10:45:56;;;;;;;12.90;6.63;;;2.60;99.90;;;;;;5128346;28;20197;-62
2022/01/15 10:48:41;;;;;;;10.10;5.77;;;2.60;99.90;;;;;;5126001;28;20234;-64
2022/01/15 10:51:25;;;;;;;15.33;6.10;;;2.60;99.90;;;;;;5126993;28;20268;-62
2022/01/15 10:54:09;;;;;;;11.17;5.77;;;2.70;99.90;;;;;;5127304;28;20196;-62
2022/01/15 10:57:10;;;;;;;10.00;5.10;;;2.80;99.90;;;;;;5125689;28;20191;-61
2022/01/15 11:00:08;;;;;;;10.20;5.53;;;3.00;99.90;;;;;;5127753;28;20307;-62
2022/01/15 11:02:56;;;;;;;6.23;5.30;;;2.80;99.90;;;;;;5127392;28;20216;-60
2022/01/15 11:05:51;;;;;;;9.10;5.17;;;2.70;99.90;;;;;;5125056;28;20188;-62
2022/01/15 11:08:38;;;;;;;12.90;6.80;;;2.90;99.90;;;;;;5126977;28;20188;-61
2022/01/15 11:11:23;;;;;;;9.17;4.80;;;3.10;99.90;;;;;;5126773;28;20293;-63
2022/01/15 11:14:07;;;;;;;10.60;5.93;;;3.20;99.90;;;;;;5125753;28;20204;-65
2022/01/15 11:16:54;;;;;;;13.77;5.80;;;3.20;99.90;;;;;;5128187;28;20191;-64
2022/01/15 11:19:42;;;;;;;13.90;6.53;;;3.20;99.90;;;;;;5126722;28;20192;-65
2022/01/15 11:22:26;;;;;;;10.97;6.27;;;3.40;99.90;;;;;;5128624;27;20237;-61
2022/01/15 11:25:13;;;;;;;11.20;4.80;;;3.40;99.90;;;;;;5132413;27;20261;-61
2022/01/15 11:27:57;;;;;;;8.73;5.33;;;3.50;99.90;;;;;;5130332;27;20190;-64
2022/01/15 11:30:43;;;;;;;6.83;5.97;;;3.60;99.90;;;;;;5130204;27;20237;-61
2022/01/15 11:33:31;;;;;;;9.17;4.90;;;3.70;99.90;;;;;;5145625;27;20272;-63
2022/01/15 11:36:27;;;;;;;11.13;5.23;;;3.70;99.90;;;;;;5128371;27;20239;-60
2022/01/15 11:39:14;;;;;;;9.50;5.07;;;3.70;99.90;;;;;;5129787;27;20200;-61
2022/01/15 11:42:02;;;;;;;11.27;5.73;;;3.50;99.90;;;;;;5130854;27;20194;-60
2022/01/15 11:44:46;;;;;;;11.70;6.00;;;3.40;99.90;;;;;;5128252;27;20223;-58
2022/01/15 11:47:31;;;;;;;11.30;5.43;;;3.30;99.90;;;;;;5130227;27;20234;-62
2022/01/15 11:50:26;;;;;;;12.53;5.87;;;3.80;99.90;;;;;;5130259;27;20184;-62
2022/01/15 11:53:49;;;;;;;10.50;6.13;;;3.70;99.90;;;;;;5128557;27;20184;-63
2022/01/15 11:56:44;;;;;;;11.87;6.17;;;3.60;99.90;;;;;;5129538;27;20680;-62
2022/01/15 11:59:29;;;;;;;11.97;5.97;;;3.90;99.90;;;;;;5131394;27;20203;-60
2022/01/15 12:02:42;;;;;;;11.10;6.10;;;3.60;99.90;;;;;;5128454;27;20195;-60
2022/01/15 12:05:30;;;;;;;9.67;4.97;;;3.70;99.90;;;;;;5129027;27;20195;-60
2022/01/15 12:08:14;;;;;;;8.63;5.97;;;3.60;99.90;;;;;;5130994;27;20211;-59
2022/01/15 12:11:00;;;;;;;9.93;6.27;;;3.60;99.90;;;;;;5128448;27;20205;-61
2022/01/15 12:13:48;;;;;;;10.57;6.70;;;3.70;99.90;;;;;;5129562;27;20214;-62
2022/01/15 12:16:36;;;;;;;11.53;6.27;;;3.50;99.90;;;;;;5130474;27;20208;-62
2022/01/15 12:19:35;;;;;;;8.90;5.23;;;3.60;99.90;;;;;;5127620;27;20227;-61
2022/01/15 12:22:44;;;;;;;11.20;6.43;;;3.60;99.90;;;;;;5129393;27;20191;-60
2022/01/15 12:25:31;;;;;;;15.93;6.77;;;3.60;99.90;;;;;;5130341;27;20225;-62
2022/01/15 12:28:17;;;;;;;10.63;5.93;;;3.70;99.90;;;;;;5128001;27;20191;-62
2022/01/15 12:31:02;;;;;;;11.63;5.30;;;3.70;99.90;;;;;;5129687;27;20223;-61
2022/01/15 12:33:46;;;;;;;11.00;5.17;;;3.90;99.90;;;;;;5129954;27;20275;-64
2022/01/15 12:36:46;;;;;;;10.60;5.63;;;3.70;99.90;;;;;;5127563;27;20203;-62
2022/01/15 12:39:38;;;;;;;8.73;5.20;;;3.70;99.90;;;;;;5129847;27;20236;-61
2022/01/15 12:42:32;;;;;;;9.67;6.40;;;3.60;99.90;;;;;;5129959;27;20207;-61
2022/01/15 12:45:17;;;;;;;8.63;5.30;;;3.70;99.90;;;;;;5127247;27;20215;-62
2022/01/15 12:48:02;;;;;;;12.13;6.93;;;3.70;99.90;;;;;;5129073;27;20235;-64
2022/01/15 12:50:49;;;;;;;13.63;6.80;;;3.70;99.90;;;;;;5128762;27;20191;-68
2022/01/15 12:53:39;;;;;;;14.37;6.90;;;3.70;99.90;;;;;;5127342;27;20192;-62
2022/01/15 12:56:26;;;;;;;16.17;6.67;;;3.70;99.90;;;;;;5129857;27;20223;-61
2022/01/15 12:59:12;;;;;;;9.27;5.57;;;3.50;99.90;;;;;;5129351;27;20311;-62
2022/01/15 13:01:56;;;;;;;8.87;4.97;;;3.70;99.90;;;;;;5128251;27;20276;-60
2022/01/15 13:04:40;;;;;;;8.70;5.30;;;3.50;99.90;;;;;;5130030;27;20304;-63
2022/01/15 13:07:24;;;;;;;9.43;5.30;;;3.50;99.90;;;;;;5128111;27;20304;-60
2022/01/15 13:10:27;;;;;;;6.27;4.13;;;3.60;99.90;;;;;;5128626;27;20273;-60
2022/01/15 13:13:18;;;;;;;10.63;5.13;;;3.60;99.90;;;;;;5129978;27;20218;-62
2022/01/15 13:16:04;;;;;;;5.80;4.10;;;3.60;99.90;;;;;;5127367;27;20311;-61
2022/01/15 13:18:58;;;;;;;8.13;5.27;;;3.50;99.90;;;;;;5127905;27;20191;-61
2022/01/15 13:21:45;;;;;;;6.80;4.87;;;3.50;99.90;;;;;;5129940;27;20192;-63
2022/01/15 13:24:29;;;;;;;8.33;5.37;;;3.60;99.90;;;;;;5126481;27;20206;-59
2022/01/15 13:27:20;;;;;;;10.20;4.63;;;3.70;99.90;;;;;;5128380;27;20195;-60
2022/01/15 13:30:05;;;;;;;6.87;4.27;;;3.60;99.90;;;;;;5129079;27;20192;-62
2022/01/15 13:32:54;;;;;;;8.50;4.37;;;3.70;99.90;;;;;;5126442;27;20198;-62
2022/01/15 13:35:41;;;;;;;6.20;4.70;;;3.70;99.90;;;;;;5128588;27;20262;-62
2022/01/15 13:38:32;;;;;;;14.13;4.37;;;3.70;99.90;;;;;;5128172;27;20196;-63
2022/01/15 13:41:20;;;;;;;9.33;5.30;;;3.70;99.90;;;;;;5127054;27;20222;-60
2022/01/15 13:44:09;;;;;;;8.00;5.40;;;3.70;99.90;;;;;;5128853;27;20192;-61
2022/01/15 13:46:55;;;;;;;6.97;4.53;;;3.80;99.90;;;;;;5127277;27;20192;-62
2022/01/15 13:55:49;;;;;;;4.97;2.47;;;3.60;99.90;;;;;;5128301;27;20218;-62
2022/01/15 13:58:34;;;;;;;5.07;2.40;;;3.60;99.90;;;;;;5125743;27;20227;-59
2022/01/15 14:01:23;;;;;;;2.50;2.40;;;3.70;99.90;;;;;;5128408;27;20200;-58
2022/01/15 14:04:21;;;;;;;3.37;1.90;;;3.70;99.90;;;;;;5126471;27;20199;-60
2022/01/15 14:07:08;;;;;;;2.90;2.27;;;3.70;99.90;;;;;;5126336;27;20217;-58
2022/01/15 14:09:56;;;;;;;1.83;1.53;;;3.80;99.90;;;;;;5129134;27;20185;-60
2022/01/15 14:12:40;;;;;;;6.43;4.20;;;3.80;99.90;;;;;;5126842;27;20265;-60
2022/01/15 14:15:39;;;;;;;9.23;5.43;;;3.70;99.90;;;;;;5126505;27;20227;-59
2022/01/15 14:18:30;;;;;;;2.43;1.83;;;3.70;99.90;;;;;;5128818;27;20187;-57
2022/01/15 14:21:39;;;;;;;1.67;1.57;;;3.90;99.90;;;;;;5127024;27;20283;-58
2022/01/15 14:24:25;;;;;;;4.43;2.20;;;4.00;99.90;;;;;;5127446;27;20242;-62
2022/01/15 14:27:23;;;;;;;9.53;1.63;;;4.00;99.90;;;;;;5128439;27;20196;-58
2022/01/15 14:30:08;;;;;;;1.97;1.77;;;4.00;99.90;;;;;;5127517;27;20191;-60
2022/01/15 14:32:53;;;;;;;3.60;1.70;;;4.10;99.90;;;;;;5126518;27;20199;-60
2022/01/15 14:35:37;;;;;;;3.37;2.17;;;4.00;99.90;;;;;;5128443;28;20232;-58
2022/01/15 14:38:22;;;;;;;2.50;2.00;;;4.20;99.90;;;;;;5126726;28;20199;-62
2022/01/15 14:41:09;;;;;;;4.50;2.07;;;4.10;99.90;;;;;;5127236;28;20240;-57
2022/01/15 14:43:53;;;;;;;2.73;2.30;;;4.20;99.90;;;;;;5128316;28;20196;-58
2022/01/15 14:46:38;;;;;;;3.50;1.83;;;4.10;99.90;;;;;;5124913;28;20239;-63
2022/01/15 14:49:22;;;;;;;3.03;2.40;;;4.00;99.90;;;;;;5127630;28;20219;-57
2022/01/15 14:52:07;;;;;;;5.87;3.00;;;4.00;99.90;;;;;;5127465;28;20315;-56
2022/01/15 14:54:51;;;;;;;4.30;2.80;;;4.10;99.90;;;;;;5125568;27;20223;-59
2022/01/15 14:57:36;;;;;;;26.57;12.23;;;4.10;99.90;;;;;;5131506;27;20199;-57
2022/01/15 15:00:21;;;;;;;5.37;3.03;;;3.90;99.90;;;;;;5131683;27;20241;-59
2022/01/15 15:03:06;;;;;;;8.40;3.53;;;4.00;99.90;;;;;;5130515;27;20195;-59